aviador You're here:

VOBL Decoded Metar

Bengaluru in INDIA
Report Time2017-11-25 00:00:00
UTC Time2017-11-25 00:24:15
Flight Rules ifr IFR
WindCalm
Visibility1600 m
Phenomena:Mist
Clouds:Broken 006 Hf
Ceiling600 ft
Temp20°C (ISA +11)
Dew Point20°C (100% RH)
QNH1016 hPa
Density Alt4,501 ft
Elevation3,002 ft
Report Wrong Elevation
Raw Report
METAR VOBL 250000Z 00000KT 1600 BR BKN006 20/20 Q1016 TEMPO 0800 FG=

Extra information for VOBL:More info

Metar Taf Metar & Taf Last 4 Metars F.Rules Stats Wind Profile Meteogram Temp Stats Airport Information Weather charts Add Link Nearby VenuesMetar ALERT Operation Metar Decoded Social comments